Terminal Aerodrome Forecast
Issued by NWS

Home | Current Version | Previous Version | Text Only | Print | Product List | Glossary On
Versions: 1 2 3 4 5 6 7 8 9 10 11 12 13 14 15 16 17 18 19 20 21 22
000
FTUS45 KBYZ 312337
TAFLVM
TAF
KLVM 312337Z 0100/0124 06010KT P6SM FEW100 SCT200
     FM010600 31008KT P6SM FEW100 SCT200
     FM011600 08006KT P6SM FEW100 SCT250
     FM012200 06006KT P6SM VCTS SCT100CB=

USA.gov is the U.S. government's official web portal to all federal, state and local government web resources and services.